sensor_id;sensor_type;location;lat;lon;timestamp;P1;durP1;ratioP1;P2;durP2;ratioP2
18933;SDS011;9599;53.706;10.384;2023-03-03T00:01:16;72.47;;;25.10;;
18933;SDS011;9599;53.706;10.384;2023-03-03T00:03:44;57.37;;;22.20;;
18933;SDS011;9599;53.706;10.384;2023-03-03T00:06:13;61.13;;;22.47;;
18933;SDS011;9599;53.706;10.384;2023-03-03T00:08:41;54.27;;;21.90;;
18933;SDS011;9599;53.706;10.384;2023-03-03T00:11:09;61.70;;;23.20;;
18933;SDS011;9599;53.706;10.384;2023-03-03T00:13:41;52.67;;;20.90;;
18933;SDS011;9599;53.706;10.384;2023-03-03T00:16:13;49.53;;;20.97;;
18933;SDS011;9599;53.706;10.384;2023-03-03T00:18:44;60.93;;;20.93;;
18933;SDS011;9599;53.706;10.384;2023-03-03T00:21:23;125.87;;;21.37;;
18933;SDS011;9599;53.706;10.384;2023-03-03T00:23:54;107.30;;;22.50;;
18933;SDS011;9599;53.706;10.384;2023-03-03T00:26:38;91.73;;;21.13;;
18933;SDS011;9599;53.706;10.384;2023-03-03T00:29:22;98.20;;;21.70;;
18933;SDS011;9599;53.706;10.384;2023-03-03T00:31:58;238.30;;;24.47;;
18933;SDS011;9599;53.706;10.384;2023-03-03T00:34:45;104.13;;;22.20;;
18933;SDS011;9599;53.706;10.384;2023-03-03T00:37:19;89.90;;;21.70;;
18933;SDS011;9599;53.706;10.384;2023-03-03T00:42:47;86.43;;;22.13;;
18933;SDS011;9599;53.706;10.384;2023-03-03T00:45:21;112.93;;;22.53;;
18933;SDS011;9599;53.706;10.384;2023-03-03T00:47:54;116.13;;;22.60;;
18933;SDS011;9599;53.706;10.384;2023-03-03T00:50:28;201.70;;;24.07;;
18933;SDS011;9599;53.706;10.384;2023-03-03T00:52:59;149.67;;;23.40;;
18933;SDS011;9599;53.706;10.384;2023-03-03T00:55:30;74.83;;;21.77;;
18933;SDS011;9599;53.706;10.384;2023-03-03T00:57:58;72.80;;;20.47;;
18933;SDS011;9599;53.706;10.384;2023-03-03T01:00:31;101.53;;;23.07;;
18933;SDS011;9599;53.706;10.384;2023-03-03T01:03:02;123.13;;;21.20;;
18933;SDS011;9599;53.706;10.384;2023-03-03T01:05:33;84.97;;;21.13;;
18933;SDS011;9599;53.706;10.384;2023-03-03T01:08:03;98.37;;;20.80;;
18933;SDS011;9599;53.706;10.384;2023-03-03T01:10:33;93.17;;;20.77;;
18933;SDS011;9599;53.706;10.384;2023-03-03T01:13:03;96.57;;;21.77;;
18933;SDS011;9599;53.706;10.384;2023-03-03T01:15:32;102.73;;;21.50;;
18933;SDS011;9599;53.706;10.384;2023-03-03T01:18:01;56.93;;;19.80;;
18933;SDS011;9599;53.706;10.384;2023-03-03T01:20:29;93.10;;;21.10;;
18933;SDS011;9599;53.706;10.384;2023-03-03T01:22:58;124.20;;;23.30;;
18933;SDS011;9599;53.706;10.384;2023-03-03T01:25:26;150.77;;;22.43;;
18933;SDS011;9599;53.706;10.384;2023-03-03T01:27:54;136.77;;;22.07;;
18933;SDS011;9599;53.706;10.384;2023-03-03T01:30:23;128.47;;;22.70;;
18933;SDS011;9599;53.706;10.384;2023-03-03T01:32:51;85.37;;;21.53;;
18933;SDS011;9599;53.706;10.384;2023-03-03T01:35:19;93.47;;;21.80;;
18933;SDS011;9599;53.706;10.384;2023-03-03T01:37:47;68.33;;;20.40;;
18933;SDS011;9599;53.706;10.384;2023-03-03T01:40:18;93.00;;;21.90;;
18933;SDS011;9599;53.706;10.384;2023-03-03T01:42:48;98.23;;;22.70;;
18933;SDS011;9599;53.706;10.384;2023-03-03T01:45:19;111.07;;;21.57;;
18933;SDS011;9599;53.706;10.384;2023-03-03T01:47:53;99.27;;;21.23;;
18933;SDS011;9599;53.706;10.384;2023-03-03T01:50:35;89.60;;;21.13;;
18933;SDS011;9599;53.706;10.384;2023-03-03T01:53:09;168.80;;;23.37;;
18933;SDS011;9599;53.706;10.384;2023-03-03T01:55:41;95.90;;;22.50;;
18933;SDS011;9599;53.706;10.384;2023-03-03T01:58:12;85.57;;;20.87;;
18933;SDS011;9599;53.706;10.384;2023-03-03T02:00:45;52.73;;;20.47;;
18933;SDS011;9599;53.706;10.384;2023-03-03T02:03:17;136.50;;;22.80;;
18933;SDS011;9599;53.706;10.384;2023-03-03T02:05:47;96.50;;;20.67;;
18933;SDS011;9599;53.706;10.384;2023-03-03T02:08:17;84.37;;;21.10;;
18933;SDS011;9599;53.706;10.384;2023-03-03T02:10:51;113.77;;;20.90;;
18933;SDS011;9599;53.706;10.384;2023-03-03T02:13:23;123.23;;;20.30;;
18933;SDS011;9599;53.706;10.384;2023-03-03T02:15:53;132.33;;;20.43;;
18933;SDS011;9599;53.706;10.384;2023-03-03T02:18:21;83.67;;;18.73;;
18933;SDS011;9599;53.706;10.384;2023-03-03T02:20:52;119.60;;;20.87;;
18933;SDS011;9599;53.706;10.384;2023-03-03T02:23:25;171.20;;;21.63;;
18933;SDS011;9599;53.706;10.384;2023-03-03T02:26:08;170.27;;;22.87;;
18933;SDS011;9599;53.706;10.384;2023-03-03T02:28:39;116.97;;;21.40;;
18933;SDS011;9599;53.706;10.384;2023-03-03T02:31:10;107.83;;;21.10;;
18933;SDS011;9599;53.706;10.384;2023-03-03T02:33:42;93.10;;;19.90;;
18933;SDS011;9599;53.706;10.384;2023-03-03T02:36:13;66.47;;;18.83;;
18933;SDS011;9599;53.706;10.384;2023-03-03T02:38:44;109.53;;;21.37;;
18933;SDS011;9599;53.706;10.384;2023-03-03T02:41:20;149.30;;;21.37;;
18933;SDS011;9599;53.706;10.384;2023-03-03T02:43:58;66.73;;;19.37;;
18933;SDS011;9599;53.706;10.384;2023-03-03T02:46:31;77.77;;;19.23;;
18933;SDS011;9599;53.706;10.384;2023-03-03T02:49:01;76.47;;;18.63;;
18933;SDS011;9599;53.706;10.384;2023-03-03T02:51:29;107.83;;;20.87;;
18933;SDS011;9599;53.706;10.384;2023-03-03T02:53:57;90.97;;;19.77;;
18933;SDS011;9599;53.706;10.384;2023-03-03T02:56:29;68.93;;;18.70;;
18933;SDS011;9599;53.706;10.384;2023-03-03T02:58:57;84.07;;;18.80;;
18933;SDS011;9599;53.706;10.384;2023-03-03T03:01:27;113.90;;;21.10;;
18933;SDS011;9599;53.706;10.384;2023-03-03T03:03:57;81.20;;;19.37;;
18933;SDS011;9599;53.706;10.384;2023-03-03T03:06:25;84.53;;;18.30;;
18933;SDS011;9599;53.706;10.384;2023-03-03T03:08:53;64.60;;;18.97;;
18933;SDS011;9599;53.706;10.384;2023-03-03T03:11:21;101.20;;;20.80;;
18933;SDS011;9599;53.706;10.384;2023-03-03T03:13:51;70.83;;;19.33;;
18933;SDS011;9599;53.706;10.384;2023-03-03T03:16:19;104.10;;;18.70;;
18933;SDS011;9599;53.706;10.384;2023-03-03T03:18:47;89.17;;;19.57;;
18933;SDS011;9599;53.706;10.384;2023-03-03T03:21:16;82.77;;;19.87;;
18933;SDS011;9599;53.706;10.384;2023-03-03T03:23:44;103.30;;;20.20;;
18933;SDS011;9599;53.706;10.384;2023-03-03T03:26:14;84.20;;;19.43;;
18933;SDS011;9599;53.706;10.384;2023-03-03T03:28:42;87.73;;;19.07;;
18933;SDS011;9599;53.706;10.384;2023-03-03T03:31:12;96.93;;;20.87;;
18933;SDS011;9599;53.706;10.384;2023-03-03T03:33:40;90.37;;;20.53;;
18933;SDS011;9599;53.706;10.384;2023-03-03T03:36:09;121.13;;;20.33;;
18933;SDS011;9599;53.706;10.384;2023-03-03T03:38:39;67.03;;;19.63;;
18933;SDS011;9599;53.706;10.384;2023-03-03T03:41:08;79.40;;;19.87;;
18933;SDS011;9599;53.706;10.384;2023-03-03T03:43:38;138.47;;;21.10;;
18933;SDS011;9599;53.706;10.384;2023-03-03T03:46:06;89.60;;;17.93;;
18933;SDS011;9599;53.706;10.384;2023-03-03T03:48:36;60.50;;;18.63;;
18933;SDS011;9599;53.706;10.384;2023-03-03T03:51:06;84.70;;;19.10;;
18933;SDS011;9599;53.706;10.384;2023-03-03T03:53:34;72.47;;;18.87;;
18933;SDS011;9599;53.706;10.384;2023-03-03T03:56:02;76.73;;;18.50;;
18933;SDS011;9599;53.706;10.384;2023-03-03T03:58:30;94.53;;;18.67;;
18933;SDS011;9599;53.706;10.384;2023-03-03T04:01:02;63.93;;;17.50;;
18933;SDS011;9599;53.706;10.384;2023-03-03T04:03:33;104.20;;;18.80;;
18933;SDS011;9599;53.706;10.384;2023-03-03T04:06:05;108.47;;;18.83;;
18933;SDS011;9599;53.706;10.384;2023-03-03T04:08:33;142.07;;;21.40;;
18933;SDS011;9599;53.706;10.384;2023-03-03T04:11:02;70.63;;;19.87;;
18933;SDS011;9599;53.706;10.384;2023-03-03T04:13:30;113.80;;;20.43;;
18933;SDS011;9599;53.706;10.384;2023-03-03T04:16:02;73.43;;;18.00;;
18933;SDS011;9599;53.706;10.384;2023-03-03T04:18:30;77.10;;;19.03;;
18933;SDS011;9599;53.706;10.384;2023-03-03T04:20:58;110.47;;;19.67;;
18933;SDS011;9599;53.706;10.384;2023-03-03T04:23:28;57.27;;;17.83;;
18933;SDS011;9599;53.706;10.384;2023-03-03T04:25:59;109.93;;;19.37;;
18933;SDS011;9599;53.706;10.384;2023-03-03T04:28:27;98.37;;;18.43;;
18933;SDS011;9599;53.706;10.384;2023-03-03T04:30:57;87.70;;;18.90;;
18933;SDS011;9599;53.706;10.384;2023-03-03T04:33:26;102.17;;;19.20;;
18933;SDS011;9599;53.706;10.384;2023-03-03T04:35:54;125.87;;;20.17;;
18933;SDS011;9599;53.706;10.384;2023-03-03T04:38:22;71.00;;;16.80;;
18933;SDS011;9599;53.706;10.384;2023-03-03T04:40:54;91.00;;;18.77;;
18933;SDS011;9599;53.706;10.384;2023-03-03T04:43:24;100.23;;;19.70;;
18933;SDS011;9599;53.706;10.384;2023-03-03T04:45:53;83.50;;;18.97;;
18933;SDS011;9599;53.706;10.384;2023-03-03T04:48:21;77.53;;;19.70;;
18933;SDS011;9599;53.706;10.384;2023-03-03T04:50:50;94.03;;;18.57;;
18933;SDS011;9599;53.706;10.384;2023-03-03T04:53:18;85.60;;;18.47;;
18933;SDS011;9599;53.706;10.384;2023-03-03T04:55:48;76.33;;;19.20;;
18933;SDS011;9599;53.706;10.384;2023-03-03T04:58:19;66.17;;;18.97;;
18933;SDS011;9599;53.706;10.384;2023-03-03T05:00:51;107.93;;;19.60;;
18933;SDS011;9599;53.706;10.384;2023-03-03T05:03:22;73.60;;;19.43;;
18933;SDS011;9599;53.706;10.384;2023-03-03T05:05:53;73.43;;;18.57;;
18933;SDS011;9599;53.706;10.384;2023-03-03T05:08:21;82.17;;;18.97;;
18933;SDS011;9599;53.706;10.384;2023-03-03T05:10:50;79.83;;;19.20;;
18933;SDS011;9599;53.706;10.384;2023-03-03T05:13:20;150.17;;;21.90;;
18933;SDS011;9599;53.706;10.384;2023-03-03T05:15:48;86.37;;;21.10;;
18933;SDS011;9599;53.706;10.384;2023-03-03T05:18:17;71.17;;;19.33;;
18933;SDS011;9599;53.706;10.384;2023-03-03T05:20:45;104.13;;;20.47;;
18933;SDS011;9599;53.706;10.384;2023-03-03T05:23:13;129.40;;;21.33;;
18933;SDS011;9599;53.706;10.384;2023-03-03T05:25:42;104.63;;;19.60;;
18933;SDS011;9599;53.706;10.384;2023-03-03T05:28:10;73.87;;;19.10;;
18933;SDS011;9599;53.706;10.384;2023-03-03T05:30:39;94.27;;;17.83;;
18933;SDS011;9599;53.706;10.384;2023-03-03T05:33:08;67.87;;;17.23;;
18933;SDS011;9599;53.706;10.384;2023-03-03T05:35:38;71.43;;;18.73;;
18933;SDS011;9599;53.706;10.384;2023-03-03T05:38:07;81.40;;;18.50;;
18933;SDS011;9599;53.706;10.384;2023-03-03T05:40:35;85.30;;;18.73;;
18933;SDS011;9599;53.706;10.384;2023-03-03T05:43:03;70.57;;;19.53;;
18933;SDS011;9599;53.706;10.384;2023-03-03T05:45:32;112.30;;;19.97;;
18933;SDS011;9599;53.706;10.384;2023-03-03T05:48:01;133.17;;;21.60;;
18933;SDS011;9599;53.706;10.384;2023-03-03T05:50:30;100.13;;;17.70;;
18933;SDS011;9599;53.706;10.384;2023-03-03T05:52:58;81.80;;;19.97;;
18933;SDS011;9599;53.706;10.384;2023-03-03T05:55:26;122.73;;;20.47;;
18933;SDS011;9599;53.706;10.384;2023-03-03T05:57:54;91.80;;;19.57;;
18933;SDS011;9599;53.706;10.384;2023-03-03T06:00:22;65.40;;;17.47;;
18933;SDS011;9599;53.706;10.384;2023-03-03T06:02:50;126.10;;;19.20;;
18933;SDS011;9599;53.706;10.384;2023-03-03T06:05:19;111.00;;;19.00;;
18933;SDS011;9599;53.706;10.384;2023-03-03T06:07:47;78.50;;;20.00;;
18933;SDS011;9599;53.706;10.384;2023-03-03T06:10:15;103.03;;;19.63;;
18933;SDS011;9599;53.706;10.384;2023-03-03T06:12:47;99.87;;;19.30;;
18933;SDS011;9599;53.706;10.384;2023-03-03T06:15:16;77.53;;;18.73;;
18933;SDS011;9599;53.706;10.384;2023-03-03T06:17:44;98.90;;;19.30;;
18933;SDS011;9599;53.706;10.384;2023-03-03T06:20:12;72.87;;;19.20;;
18933;SDS011;9599;53.706;10.384;2023-03-03T06:22:41;79.30;;;19.53;;
18933;SDS011;9599;53.706;10.384;2023-03-03T06:25:09;65.73;;;18.37;;
18933;SDS011;9599;53.706;10.384;2023-03-03T06:27:37;59.23;;;19.73;;
18933;SDS011;9599;53.706;10.384;2023-03-03T06:30:06;89.77;;;21.83;;
18933;SDS011;9599;53.706;10.384;2023-03-03T06:32:34;59.83;;;19.13;;
18933;SDS011;9599;53.706;10.384;2023-03-03T06:35:02;75.53;;;18.73;;
18933;SDS011;9599;53.706;10.384;2023-03-03T06:37:30;79.73;;;18.40;;
18933;SDS011;9599;53.706;10.384;2023-03-03T06:40:00;39.23;;;17.97;;
18933;SDS011;9599;53.706;10.384;2023-03-03T06:42:28;120.63;;;20.83;;
18933;SDS011;9599;53.706;10.384;2023-03-03T06:44:56;72.17;;;18.27;;
18933;SDS011;9599;53.706;10.384;2023-03-03T06:47:24;65.67;;;16.90;;
18933;SDS011;9599;53.706;10.384;2023-03-03T06:49:52;76.97;;;17.33;;
18933;SDS011;9599;53.706;10.384;2023-03-03T06:52:21;86.23;;;20.30;;
18933;SDS011;9599;53.706;10.384;2023-03-03T06:54:50;69.70;;;18.00;;
18933;SDS011;9599;53.706;10.384;2023-03-03T06:57:24;73.23;;;18.13;;
18933;SDS011;9599;53.706;10.384;2023-03-03T06:59:54;102.17;;;18.77;;
18933;SDS011;9599;53.706;10.384;2023-03-03T07:02:25;75.43;;;18.23;;
18933;SDS011;9599;53.706;10.384;2023-03-03T07:04:54;78.87;;;18.20;;
18933;SDS011;9599;53.706;10.384;2023-03-03T07:07:23;80.73;;;18.00;;
18933;SDS011;9599;53.706;10.384;2023-03-03T07:09:52;83.83;;;18.43;;
18933;SDS011;9599;53.706;10.384;2023-03-03T07:12:24;132.53;;;19.30;;
18933;SDS011;9599;53.706;10.384;2023-03-03T07:14:54;69.43;;;17.53;;
18933;SDS011;9599;53.706;10.384;2023-03-03T07:17:29;65.93;;;16.80;;
18933;SDS011;9599;53.706;10.384;2023-03-03T07:19:57;71.53;;;18.33;;
18933;SDS011;9599;53.706;10.384;2023-03-03T07:22:25;99.27;;;21.00;;
18933;SDS011;9599;53.706;10.384;2023-03-03T07:24:56;92.50;;;18.23;;
18933;SDS011;9599;53.706;10.384;2023-03-03T07:27:28;140.23;;;21.23;;
18933;SDS011;9599;53.706;10.384;2023-03-03T07:30:00;50.03;;;18.50;;
18933;SDS011;9599;53.706;10.384;2023-03-03T07:32:46;79.47;;;21.27;;
18933;SDS011;9599;53.706;10.384;2023-03-03T07:35:24;90.07;;;20.03;;
18933;SDS011;9599;53.706;10.384;2023-03-03T07:38:01;104.77;;;23.17;;
18933;SDS011;9599;53.706;10.384;2023-03-03T07:40:33;99.33;;;22.17;;
18933;SDS011;9599;53.706;10.384;2023-03-03T07:43:18;68.97;;;17.30;;
18933;SDS011;9599;53.706;10.384;2023-03-03T07:45:56;102.97;;;23.10;;
18933;SDS011;9599;53.706;10.384;2023-03-03T07:48:30;72.07;;;22.70;;
18933;SDS011;9599;53.706;10.384;2023-03-03T07:51:02;95.30;;;17.53;;
18933;SDS011;9599;53.706;10.384;2023-03-03T07:53:38;79.43;;;17.87;;
18933;SDS011;9599;53.706;10.384;2023-03-03T07:56:11;79.90;;;24.30;;
18933;SDS011;9599;53.706;10.384;2023-03-03T07:58:44;87.20;;;18.30;;
18933;SDS011;9599;53.706;10.384;2023-03-03T08:01:23;113.57;;;19.87;;
18933;SDS011;9599;53.706;10.384;2023-03-03T08:04:12;62.47;;;16.20;;
18933;SDS011;9599;53.706;10.384;2023-03-03T08:06:44;62.10;;;14.97;;
18933;SDS011;9599;53.706;10.384;2023-03-03T08:09:24;106.40;;;18.47;;
18933;SDS011;9599;53.706;10.384;2023-03-03T08:12:23;90.43;;;18.47;;
18933;SDS011;9599;53.706;10.384;2023-03-03T08:17:52;91.67;;;20.07;;
18933;SDS011;9599;53.706;10.384;2023-03-03T08:23:19;56.60;;;18.37;;
18933;SDS011;9599;53.706;10.384;2023-03-03T08:25:48;62.27;;;19.37;;
18933;SDS011;9599;53.706;10.384;2023-03-03T08:28:18;59.13;;;18.07;;
18933;SDS011;9599;53.706;10.384;2023-03-03T08:30:48;47.57;;;18.17;;
18933;SDS011;9599;53.706;10.384;2023-03-03T08:33:19;63.03;;;17.03;;
18933;SDS011;9599;53.706;10.384;2023-03-03T08:35:47;55.90;;;15.00;;
18933;SDS011;9599;53.706;10.384;2023-03-03T08:38:16;53.43;;;16.07;;
18933;SDS011;9599;53.706;10.384;2023-03-03T08:40:46;42.53;;;16.23;;
18933;SDS011;9599;53.706;10.384;2023-03-03T08:43:15;49.73;;;15.03;;
18933;SDS011;9599;53.706;10.384;2023-03-03T08:45:48;30.80;;;13.37;;
18933;SDS011;9599;53.706;10.384;2023-03-03T08:48:17;52.20;;;13.83;;
18933;SDS011;9599;53.706;10.384;2023-03-03T08:50:46;41.53;;;12.93;;
18933;SDS011;9599;53.706;10.384;2023-03-03T08:53:15;48.47;;;14.60;;
18933;SDS011;9599;53.706;10.384;2023-03-03T08:55:45;35.50;;;13.27;;
18933;SDS011;9599;53.706;10.384;2023-03-03T08:58:13;44.07;;;12.83;;
18933;SDS011;9599;53.706;10.384;2023-03-03T09:00:42;38.80;;;12.53;;
18933;SDS011;9599;53.706;10.384;2023-03-03T09:03:15;50.03;;;13.80;;
18933;SDS011;9599;53.706;10.384;2023-03-03T09:05:43;60.37;;;13.90;;
18933;SDS011;9599;53.706;10.384;2023-03-03T09:08:11;59.80;;;14.23;;
18933;SDS011;9599;53.706;10.384;2023-03-03T09:10:39;52.87;;;14.43;;
18933;SDS011;9599;53.706;10.384;2023-03-03T09:13:10;40.43;;;13.03;;
18933;SDS011;9599;53.706;10.384;2023-03-03T09:15:41;50.10;;;12.77;;
18933;SDS011;9599;53.706;10.384;2023-03-03T09:18:13;38.13;;;13.10;;
18933;SDS011;9599;53.706;10.384;2023-03-03T09:20:44;48.57;;;14.00;;
18933;SDS011;9599;53.706;10.384;2023-03-03T09:23:29;53.33;;;17.00;;
18933;SDS011;9599;53.706;10.384;2023-03-03T09:26:14;32.70;;;12.77;;
18933;SDS011;9599;53.706;10.384;2023-03-03T09:28:54;32.20;;;12.37;;
18933;SDS011;9599;53.706;10.384;2023-03-03T09:31:26;37.63;;;12.60;;
18933;SDS011;9599;53.706;10.384;2023-03-03T09:33:59;32.10;;;12.87;;
18933;SDS011;9599;53.706;10.384;2023-03-03T09:36:28;36.60;;;13.87;;
18933;SDS011;9599;53.706;10.384;2023-03-03T09:39:09;36.10;;;13.53;;
18933;SDS011;9599;53.706;10.384;2023-03-03T09:41:45;28.57;;;13.47;;
18933;SDS011;9599;53.706;10.384;2023-03-03T09:44:47;35.87;;;13.37;;
18933;SDS011;9599;53.706;10.384;2023-03-03T09:47:33;34.77;;;13.73;;
18933;SDS011;9599;53.706;10.384;2023-03-03T09:50:14;30.73;;;13.93;;
18933;SDS011;9599;53.706;10.384;2023-03-03T09:52:54;42.00;;;14.23;;
18933;SDS011;9599;53.706;10.384;2023-03-03T09:55:38;39.50;;;13.43;;
18933;SDS011;9599;53.706;10.384;2023-03-03T09:58:15;35.63;;;13.70;;
18933;SDS011;9599;53.706;10.384;2023-03-03T10:00:58;41.83;;;14.33;;
18933;SDS011;9599;53.706;10.384;2023-03-03T10:03:49;33.57;;;12.83;;
18933;SDS011;9599;53.706;10.384;2023-03-03T10:06:33;30.80;;;12.83;;
18933;SDS011;9599;53.706;10.384;2023-03-03T10:12:11;25.20;;;11.83;;
18933;SDS011;9599;53.706;10.384;2023-03-03T10:14:54;22.53;;;10.80;;
18933;SDS011;9599;53.706;10.384;2023-03-03T10:17:43;22.57;;;10.97;;
18933;SDS011;9599;53.706;10.384;2023-03-03T10:20:22;26.93;;;11.10;;
18933;SDS011;9599;53.706;10.384;2023-03-03T10:23:19;22.17;;;10.67;;
18933;SDS011;9599;53.706;10.384;2023-03-03T10:25:52;25.43;;;11.47;;
18933;SDS011;9599;53.706;10.384;2023-03-03T10:31:34;38.57;;;13.00;;
18933;SDS011;9599;53.706;10.384;2023-03-03T10:34:15;25.53;;;11.87;;
18933;SDS011;9599;53.706;10.384;2023-03-03T10:36:59;29.10;;;12.37;;
18933;SDS011;9599;53.706;10.384;2023-03-03T10:39:47;24.07;;;11.67;;
18933;SDS011;9599;53.706;10.384;2023-03-03T10:42:32;36.70;;;19.10;;
18933;SDS011;9599;53.706;10.384;2023-03-03T10:45:21;23.23;;;11.23;;
18933;SDS011;9599;53.706;10.384;2023-03-03T10:48:09;22.47;;;10.60;;
18933;SDS011;9599;53.706;10.384;2023-03-03T10:50:51;28.70;;;11.20;;
18933;SDS011;9599;53.706;10.384;2023-03-03T10:53:26;24.10;;;11.30;;
18933;SDS011;9599;53.706;10.384;2023-03-03T10:56:05;27.37;;;13.43;;
18933;SDS011;9599;53.706;10.384;2023-03-03T10:58:44;19.57;;;10.07;;
18933;SDS011;9599;53.706;10.384;2023-03-03T11:01:22;25.33;;;11.03;;
18933;SDS011;9599;53.706;10.384;2023-03-03T11:04:02;22.23;;;10.10;;
18933;SDS011;9599;53.706;10.384;2023-03-03T11:06:46;24.47;;;10.83;;
18933;SDS011;9599;53.706;10.384;2023-03-03T11:09:27;20.90;;;10.30;;
18933;SDS011;9599;53.706;10.384;2023-03-03T11:12:04;18.93;;;8.43;;
18933;SDS011;9599;53.706;10.384;2023-03-03T11:14:42;21.83;;;10.13;;
18933;SDS011;9599;53.706;10.384;2023-03-03T11:17:19;22.00;;;10.03;;
18933;SDS011;9599;53.706;10.384;2023-03-03T11:19:59;21.30;;;10.23;;
18933;SDS011;9599;53.706;10.384;2023-03-03T11:22:37;25.73;;;12.00;;
18933;SDS011;9599;53.706;10.384;2023-03-03T11:28:08;22.17;;;9.60;;
18933;SDS011;9599;53.706;10.384;2023-03-03T11:30:47;19.10;;;10.63;;
18933;SDS011;9599;53.706;10.384;2023-03-03T11:33:25;22.57;;;11.70;;
18933;SDS011;9599;53.706;10.384;2023-03-03T11:36:04;25.00;;;11.20;;
18933;SDS011;9599;53.706;10.384;2023-03-03T11:38:40;24.07;;;10.83;;
18933;SDS011;9599;53.706;10.384;2023-03-03T11:41:16;20.37;;;10.93;;
18933;SDS011;9599;53.706;10.384;2023-03-03T11:43:54;26.20;;;12.73;;
18933;SDS011;9599;53.706;10.384;2023-03-03T11:46:28;24.83;;;11.97;;
18933;SDS011;9599;53.706;10.384;2023-03-03T11:49:02;23.17;;;12.80;;
18933;SDS011;9599;53.706;10.384;2023-03-03T11:51:37;27.10;;;12.47;;
18933;SDS011;9599;53.706;10.384;2023-03-03T11:54:14;21.67;;;11.23;;
18933;SDS011;9599;53.706;10.384;2023-03-03T11:56:47;25.13;;;11.83;;
18933;SDS011;9599;53.706;10.384;2023-03-03T11:59:25;24.70;;;11.17;;
18933;SDS011;9599;53.706;10.384;2023-03-03T12:02:25;25.23;;;12.00;;
18933;SDS011;9599;53.706;10.384;2023-03-03T12:05:12;25.83;;;12.80;;
18933;SDS011;9599;53.706;10.384;2023-03-03T12:07:53;24.70;;;12.10;;
18933;SDS011;9599;53.706;10.384;2023-03-03T12:10:30;24.90;;;11.37;;
18933;SDS011;9599;53.706;10.384;2023-03-03T12:13:05;23.90;;;12.70;;
18933;SDS011;9599;53.706;10.384;2023-03-03T12:15:45;26.73;;;12.07;;
18933;SDS011;9599;53.706;10.384;2023-03-03T12:18:40;26.10;;;12.67;;
18933;SDS011;9599;53.706;10.384;2023-03-03T12:21:21;23.57;;;12.07;;
18933;SDS011;9599;53.706;10.384;2023-03-03T12:24:04;21.80;;;11.63;;
18933;SDS011;9599;53.706;10.384;2023-03-03T12:26:45;23.10;;;12.83;;
18933;SDS011;9599;53.706;10.384;2023-03-03T12:29:24;24.47;;;11.33;;
18933;SDS011;9599;53.706;10.384;2023-03-03T12:31:57;22.63;;;10.53;;
18933;SDS011;9599;53.706;10.384;2023-03-03T12:34:31;21.73;;;10.77;;
18933;SDS011;9599;53.706;10.384;2023-03-03T12:40:14;20.87;;;9.70;;
18933;SDS011;9599;53.706;10.384;2023-03-03T12:42:48;20.57;;;10.30;;
18933;SDS011;9599;53.706;10.384;2023-03-03T12:45:40;21.33;;;10.03;;
18933;SDS011;9599;53.706;10.384;2023-03-03T12:48:18;19.43;;;10.63;;
18933;SDS011;9599;53.706;10.384;2023-03-03T12:50:52;17.73;;;9.43;;
18933;SDS011;9599;53.706;10.384;2023-03-03T12:53:30;16.53;;;8.90;;
18933;SDS011;9599;53.706;10.384;2023-03-03T12:56:09;16.17;;;8.63;;
18933;SDS011;9599;53.706;10.384;2023-03-03T12:58:42;16.47;;;9.03;;
18933;SDS011;9599;53.706;10.384;2023-03-03T13:01:24;17.30;;;8.63;;
18933;SDS011;9599;53.706;10.384;2023-03-03T13:04:04;15.77;;;8.83;;
18933;SDS011;9599;53.706;10.384;2023-03-03T13:06:38;14.73;;;8.00;;
18933;SDS011;9599;53.706;10.384;2023-03-03T13:09:14;12.00;;;7.13;;
18933;SDS011;9599;53.706;10.384;2023-03-03T13:11:54;15.30;;;8.53;;
18933;SDS011;9599;53.706;10.384;2023-03-03T13:14:32;13.67;;;7.77;;
18933;SDS011;9599;53.706;10.384;2023-03-03T13:17:08;15.57;;;8.47;;
18933;SDS011;9599;53.706;10.384;2023-03-03T13:19:48;16.40;;;8.40;;
18933;SDS011;9599;53.706;10.384;2023-03-03T13:22:25;17.07;;;7.33;;
18933;SDS011;9599;53.706;10.384;2023-03-03T13:25:02;16.87;;;8.33;;
18933;SDS011;9599;53.706;10.384;2023-03-03T13:27:35;15.37;;;8.10;;
18933;SDS011;9599;53.706;10.384;2023-03-03T13:30:13;14.33;;;8.57;;
18933;SDS011;9599;53.706;10.384;2023-03-03T13:32:43;15.47;;;8.03;;
18933;SDS011;9599;53.706;10.384;2023-03-03T13:35:22;17.13;;;8.83;;
18933;SDS011;9599;53.706;10.384;2023-03-03T13:37:59;16.30;;;8.07;;
18933;SDS011;9599;53.706;10.384;2023-03-03T13:40:32;14.93;;;7.43;;
18933;SDS011;9599;53.706;10.384;2023-03-03T13:43:09;16.07;;;8.00;;
18933;SDS011;9599;53.706;10.384;2023-03-03T13:45:48;14.83;;;8.00;;
18933;SDS011;9599;53.706;10.384;2023-03-03T13:48:30;17.30;;;7.43;;
18933;SDS011;9599;53.706;10.384;2023-03-03T13:51:06;14.03;;;7.30;;
18933;SDS011;9599;53.706;10.384;2023-03-03T13:53:42;10.67;;;6.40;;
18933;SDS011;9599;53.706;10.384;2023-03-03T13:56:26;13.40;;;6.90;;
18933;SDS011;9599;53.706;10.384;2023-03-03T13:59:04;12.30;;;6.77;;
18933;SDS011;9599;53.706;10.384;2023-03-03T14:01:45;13.53;;;6.40;;
18933;SDS011;9599;53.706;10.384;2023-03-03T14:04:24;13.30;;;6.90;;
18933;SDS011;9599;53.706;10.384;2023-03-03T14:07:02;14.50;;;7.43;;
18933;SDS011;9599;53.706;10.384;2023-03-03T14:09:44;17.40;;;8.97;;
18933;SDS011;9599;53.706;10.384;2023-03-03T14:12:20;9.57;;;5.33;;
18933;SDS011;9599;53.706;10.384;2023-03-03T14:14:56;10.07;;;6.13;;
18933;SDS011;9599;53.706;10.384;2023-03-03T14:17:31;7.00;;;3.93;;
18933;SDS011;9599;53.706;10.384;2023-03-03T14:20:11;6.70;;;3.80;;
18933;SDS011;9599;53.706;10.384;2023-03-03T14:22:48;4.97;;;3.93;;
18933;SDS011;9599;53.706;10.384;2023-03-03T14:25:19;6.47;;;3.17;;
18933;SDS011;9599;53.706;10.384;2023-03-03T14:27:58;4.67;;;3.10;;
18933;SDS011;9599;53.706;10.384;2023-03-03T14:30:29;6.67;;;3.17;;
18933;SDS011;9599;53.706;10.384;2023-03-03T14:33:01;4.40;;;2.77;;
18933;SDS011;9599;53.706;10.384;2023-03-03T14:35:41;4.20;;;2.60;;
18933;SDS011;9599;53.706;10.384;2023-03-03T14:38:12;5.37;;;2.10;;
18933;SDS011;9599;53.706;10.384;2023-03-03T14:40:42;4.20;;;1.90;;
18933;SDS011;9599;53.706;10.384;2023-03-03T14:43:18;2.97;;;1.80;;
18933;SDS011;9599;53.706;10.384;2023-03-03T14:45:49;5.60;;;2.40;;
18933;SDS011;9599;53.706;10.384;2023-03-03T14:48:18;3.80;;;2.20;;
18933;SDS011;9599;53.706;10.384;2023-03-03T14:50:48;3.90;;;2.37;;
18933;SDS011;9599;53.706;10.384;2023-03-03T14:53:28;4.10;;;1.73;;
18933;SDS011;9599;53.706;10.384;2023-03-03T14:56:13;3.17;;;1.60;;
18933;SDS011;9599;53.706;10.384;2023-03-03T14:58:43;2.57;;;1.70;;
18933;SDS011;9599;53.706;10.384;2023-03-03T15:01:15;2.17;;;1.60;;
18933;SDS011;9599;53.706;10.384;2023-03-03T15:03:49;4.77;;;2.07;;
18933;SDS011;9599;53.706;10.384;2023-03-03T15:06:35;4.13;;;2.30;;
18933;SDS011;9599;53.706;10.384;2023-03-03T15:09:20;5.93;;;2.43;;
18933;SDS011;9599;53.706;10.384;2023-03-03T15:11:51;9.33;;;2.57;;
18933;SDS011;9599;53.706;10.384;2023-03-03T15:14:22;6.70;;;3.80;;
18933;SDS011;9599;53.706;10.384;2023-03-03T15:16:56;5.97;;;2.60;;
18933;SDS011;9599;53.706;10.384;2023-03-03T15:19:43;4.30;;;2.23;;
18933;SDS011;9599;53.706;10.384;2023-03-03T15:22:19;6.40;;;2.10;;